Time;durP1;ratioP1;P1;durP2;ratioP2;P2;SDS_P1;SDS_P2;PMS_P1;PMS_P2;Temp;Humidity;BMP_temperature;BMP_pressure;BME280_temperature;BME280_humidity;BME280_pressure;Samples;Min_cycle;Max_cycle;Signal;HPM_P1;HPM_P2
2023/07/23 00:00:30;;;;;;;79.68;34.03;;;14.20;99.90;;;;;;5040147;28;20525;-74
2023/07/23 00:02:56;;;;;;;83.50;33.75;;;14.10;99.90;;;;;;5041611;28;20032;-74
2023/07/23 00:05:26;;;;;;;77.20;32.33;;;14.20;99.90;;;;;;5040827;28;20036;-73
2023/07/23 00:07:55;;;;;;;70.47;31.65;;;14.20;99.90;;;;;;5040958;28;20056;-72
2023/07/23 00:10:21;;;;;;;81.70;33.13;;;14.10;99.90;;;;;;5041295;28;20053;-73
2023/07/23 00:12:46;;;;;;;71.30;31.67;;;14.20;99.90;;;;;;5041873;28;20036;-74
2023/07/23 00:15:13;;;;;;;79.88;33.90;;;14.20;99.90;;;;;;5041932;28;20033;-73
2023/07/23 00:17:39;;;;;;;73.32;31.80;;;14.20;99.90;;;;;;5040447;28;20021;-72
2023/07/23 00:20:07;;;;;;;79.60;30.95;;;14.20;99.90;;;;;;5040764;28;20022;-72
2023/07/23 00:22:33;;;;;;;66.95;32.25;;;14.20;99.90;;;;;;5041195;28;20038;-71
2023/07/23 00:24:59;;;;;;;70.25;30.52;;;14.10;99.90;;;;;;5041585;28;20030;-71
2023/07/23 00:27:25;;;;;;;74.53;31.95;;;14.20;99.90;;;;;;5041167;28;20710;-73
2023/07/23 00:29:50;;;;;;;73.97;31.50;;;14.10;99.90;;;;;;5041168;28;20017;-73
2023/07/23 00:32:16;;;;;;;72.97;31.58;;;14.20;99.90;;;;;;5042008;28;20017;-73
2023/07/23 00:34:42;;;;;;;66.05;29.85;;;14.20;99.90;;;;;;5040103;28;20025;-73
2023/07/23 00:37:08;;;;;;;70.70;29.85;;;14.10;99.90;;;;;;5045779;28;20033;-73
2023/07/23 00:39:34;;;;;;;65.05;30.35;;;14.20;99.90;;;;;;5045095;28;20017;-72
2023/07/23 00:42:00;;;;;;;68.50;30.25;;;14.10;99.90;;;;;;5045460;28;20120;-73
2023/07/23 00:44:26;;;;;;;70.68;30.38;;;14.10;99.90;;;;;;5044295;28;20025;-71
2023/07/23 00:46:54;;;;;;;69.60;30.67;;;14.10;99.90;;;;;;5044961;28;20044;-73
2023/07/23 00:49:20;;;;;;;72.38;31.45;;;14.10;99.90;;;;;;5043785;28;20486;-74
2023/07/23 00:51:47;;;;;;;72.57;30.92;;;14.20;99.90;;;;;;5045386;28;20116;-74
2023/07/23 00:54:13;;;;;;;64.10;29.52;;;14.10;99.90;;;;;;5042929;28;20047;-73
2023/07/23 00:56:42;;;;;;;68.95;31.50;;;14.20;99.90;;;;;;5044791;28;20029;-73
2023/07/23 00:59:08;;;;;;;64.97;28.38;;;14.10;99.90;;;;;;5044887;28;20052;-72
2023/07/23 01:01:36;;;;;;;64.57;29.10;;;14.10;99.90;;;;;;5045066;28;20040;-72
2023/07/23 01:04:03;;;;;;;63.55;30.23;;;14.20;99.90;;;;;;5044853;28;20029;-74
2023/07/23 01:06:31;;;;;;;69.00;29.23;;;14.10;99.90;;;;;;5043385;28;20052;-74
2023/07/23 01:08:59;;;;;;;58.72;29.45;;;14.10;99.90;;;;;;5044402;28;20029;-73
2023/07/23 01:11:26;;;;;;;59.10;27.85;;;14.10;99.90;;;;;;5043430;28;20021;-73
2023/07/23 01:13:52;;;;;;;59.58;28.75;;;14.10;99.90;;;;;;5044427;28;20026;-74
2023/07/23 01:16:20;;;;;;;66.10;28.88;;;14.10;99.90;;;;;;5045253;28;20517;-74
2023/07/23 01:18:46;;;;;;;67.05;29.40;;;14.10;99.90;;;;;;5043535;28;20022;-72
2023/07/23 01:21:14;;;;;;;73.78;30.35;;;14.10;99.90;;;;;;5042395;28;20045;-73
2023/07/23 01:23:40;;;;;;;60.08;30.35;;;14.10;99.90;;;;;;5043341;28;20289;-74
2023/07/23 01:26:07;;;;;;;70.30;31.63;;;14.10;99.90;;;;;;5044038;28;20037;-73
2023/07/23 01:28:33;;;;;;;67.80;31.13;;;14.10;99.90;;;;;;5043482;28;20417;-72
2023/07/23 01:30:59;;;;;;;73.57;30.85;;;14.10;99.90;;;;;;5044390;28;20025;-74
2023/07/23 01:33:25;;;;;;;68.97;30.63;;;14.10;99.90;;;;;;5044438;28;20025;-73
2023/07/23 01:35:54;;;;;;;67.70;31.00;;;14.10;99.90;;;;;;5043492;28;20056;-73
2023/07/23 01:38:21;;;;;;;65.50;30.95;;;14.20;99.90;;;;;;5044589;28;20198;-72
2023/07/23 01:40:47;;;;;;;74.15;32.88;;;14.10;99.90;;;;;;5045113;28;20032;-74
2023/07/23 01:43:13;;;;;;;66.00;30.70;;;14.10;99.90;;;;;;5043083;28;20041;-73
2023/07/23 01:45:42;;;;;;;79.60;32.60;;;14.20;99.90;;;;;;5044157;28;20048;-73
2023/07/23 01:48:08;;;;;;;79.53;33.75;;;14.20;99.90;;;;;;5044202;28;20021;-74
2023/07/23 01:50:34;;;;;;;73.30;33.05;;;14.10;99.90;;;;;;5042800;28;20021;-74
2023/07/23 01:53:00;;;;;;;73.65;32.70;;;14.10;99.90;;;;;;5043609;28;20029;-74
2023/07/23 01:55:25;;;;;;;68.63;31.42;;;14.10;99.90;;;;;;5044521;28;20027;-74
2023/07/23 01:57:51;;;;;;;73.72;32.72;;;14.10;99.90;;;;;;5044519;28;20085;-74
2023/07/23 02:00:19;;;;;;;68.10;32.05;;;14.10;99.90;;;;;;5044081;28;20104;-75
2023/07/23 02:02:44;;;;;;;68.38;31.23;;;14.10;99.90;;;;;;5044362;28;20037;-74
2023/07/23 02:05:10;;;;;;;69.65;31.63;;;14.10;99.90;;;;;;5042629;28;20427;-73
2023/07/23 02:07:36;;;;;;;64.45;30.70;;;14.10;99.90;;;;;;5043288;28;20491;-73
2023/07/23 02:10:01;;;;;;;67.07;30.33;;;14.10;99.90;;;;;;5042684;28;20018;-73
2023/07/23 02:12:27;;;;;;;64.20;30.02;;;14.10;99.90;;;;;;5044101;28;20045;-73
2023/07/23 02:14:53;;;;;;;67.00;30.10;;;14.10;99.90;;;;;;5043799;28;20056;-74
2023/07/23 02:17:19;;;;;;;65.10;30.85;;;14.10;99.90;;;;;;5043594;28;20032;-74
2023/07/23 02:19:45;;;;;;;70.75;30.85;;;14.10;99.90;;;;;;5044129;28;20025;-73
2023/07/23 02:22:11;;;;;;;59.33;29.25;;;14.10;99.90;;;;;;5042253;28;20049;-72
2023/07/23 02:24:37;;;;;;;67.10;31.30;;;14.10;99.90;;;;;;5043617;28;20033;-72
2023/07/23 02:27:03;;;;;;;68.05;32.35;;;14.10;99.90;;;;;;5042485;28;20029;-72
2023/07/23 02:29:29;;;;;;;65.50;29.73;;;14.10;99.90;;;;;;5043468;28;20029;-72
2023/07/23 02:31:54;;;;;;;73.38;31.38;;;14.10;99.90;;;;;;5043639;28;20029;-72
2023/07/23 02:34:20;;;;;;;63.70;29.10;;;14.10;99.90;;;;;;5043664;28;20069;-71
2023/07/23 02:36:46;;;;;;;67.82;30.27;;;14.10;99.90;;;;;;5043779;28;20025;-72
2023/07/23 02:39:12;;;;;;;72.47;30.55;;;14.10;99.90;;;;;;5041611;28;20022;-72
2023/07/23 02:41:38;;;;;;;65.78;30.30;;;14.10;99.90;;;;;;5041743;28;20042;-73
2023/07/23 02:44:03;;;;;;;68.03;30.08;;;14.10;99.90;;;;;;5041726;28;20028;-71
2023/07/23 02:46:29;;;;;;;73.10;31.70;;;14.10;99.90;;;;;;5043376;28;20033;-73
2023/07/23 02:48:55;;;;;;;64.15;30.27;;;14.10;99.90;;;;;;5043179;28;20034;-70
2023/07/23 02:51:21;;;;;;;62.50;28.52;;;14.10;99.90;;;;;;5043018;28;20037;-69
2023/07/23 02:53:47;;;;;;;61.35;28.35;;;14.10;99.90;;;;;;5042297;28;20055;-71
2023/07/23 02:56:13;;;;;;;63.85;29.50;;;14.10;99.90;;;;;;5041366;28;20070;-72
2023/07/23 02:58:38;;;;;;;63.72;29.25;;;14.10;99.90;;;;;;5042474;28;20029;-71
2023/07/23 03:01:04;;;;;;;61.83;30.08;;;14.10;99.90;;;;;;5043159;28;20120;-70
2023/07/23 03:03:30;;;;;;;61.45;28.50;;;14.10;99.90;;;;;;5042848;28;20504;-71
2023/07/23 03:05:55;;;;;;;62.85;27.75;;;14.10;99.90;;;;;;5042887;28;20044;-74
2023/07/23 03:08:21;;;;;;;65.72;29.38;;;14.10;99.90;;;;;;5043266;28;20029;-71
2023/07/23 03:10:47;;;;;;;67.28;29.55;;;14.10;99.90;;;;;;5042869;28;20017;-72
2023/07/23 03:13:13;;;;;;;64.70;28.70;;;14.10;99.90;;;;;;5041706;28;20030;-72
2023/07/23 03:15:39;;;;;;;64.93;29.17;;;14.10;99.90;;;;;;5042411;28;20024;-72
2023/07/23 03:18:04;;;;;;;65.75;29.73;;;14.10;99.90;;;;;;5041184;28;20493;-71
2023/07/23 03:20:30;;;;;;;62.08;27.95;;;14.10;99.90;;;;;;5042860;28;20017;-72
2023/07/23 03:22:56;;;;;;;64.88;27.98;;;14.20;99.90;;;;;;5042543;28;20045;-70
2023/07/23 03:25:22;;;;;;;57.80;26.80;;;14.10;99.90;;;;;;5042511;28;20104;-73
2023/07/23 03:27:48;;;;;;;63.10;27.23;;;14.10;99.90;;;;;;5042923;28;20036;-73
2023/07/23 03:30:14;;;;;;;61.10;26.73;;;14.10;99.90;;;;;;5042830;28;20045;-72
2023/07/23 03:32:39;;;;;;;64.47;28.40;;;14.10;99.90;;;;;;5040882;28;20041;-71
2023/07/23 03:35:05;;;;;;;63.85;25.88;;;14.10;99.90;;;;;;5042426;28;20025;-71
2023/07/23 03:37:31;;;;;;;59.83;25.90;;;14.10;99.90;;;;;;5041166;28;20040;-72
2023/07/23 03:39:56;;;;;;;57.58;25.73;;;14.10;99.90;;;;;;5040858;28;20021;-72
2023/07/23 03:42:24;;;;;;;56.22;24.55;;;14.10;99.90;;;;;;5042537;28;20096;-72
2023/07/23 03:44:50;;;;;;;57.72;25.63;;;14.10;99.90;;;;;;5040097;28;20029;-72
2023/07/23 03:47:17;;;;;;;58.38;24.13;;;14.10;99.90;;;;;;5042159;28;20025;-71
2023/07/23 03:49:43;;;;;;;52.78;25.98;;;14.10;99.90;;;;;;5041984;28;20033;-71
2023/07/23 03:52:09;;;;;;;57.78;24.80;;;14.00;99.90;;;;;;5041010;28;20399;-71
2023/07/23 03:54:35;;;;;;;72.15;27.58;;;14.10;99.90;;;;;;5042034;28;20022;-71
2023/07/23 03:57:02;;;;;;;66.45;26.33;;;14.10;99.90;;;;;;5040474;28;20043;-72
2023/07/23 03:59:34;;;;;;;63.28;28.42;;;14.10;99.90;;;;;;5041871;28;20028;-71
2023/07/23 04:02:00;;;;;;;66.85;27.95;;;14.10;99.90;;;;;;5041774;28;20045;-71
2023/07/23 04:04:26;;;;;;;72.65;27.95;;;14.10;99.90;;;;;;5040588;28;20044;-73
2023/07/23 04:06:51;;;;;;;64.47;25.50;;;14.10;99.90;;;;;;5041926;28;20075;-70
2023/07/23 04:09:18;;;;;;;58.15;24.83;;;14.10;99.90;;;;;;5041200;28;20036;-71
2023/07/23 04:11:44;;;;;;;68.70;26.58;;;14.10;99.90;;;;;;5040026;28;20987;-71
2023/07/23 04:14:10;;;;;;;69.63;25.40;;;14.10;99.90;;;;;;5039658;28;20033;-71
2023/07/23 04:16:35;;;;;;;60.45;26.35;;;14.10;99.90;;;;;;5041642;28;20506;-71
2023/07/23 04:19:01;;;;;;;65.57;26.30;;;14.10;99.90;;;;;;5041677;28;20045;-72
2023/07/23 04:21:26;;;;;;;72.75;27.48;;;14.10;99.90;;;;;;5041573;28;20513;-71
2023/07/23 04:23:57;;;;;;;60.25;25.42;;;14.20;99.90;;;;;;5040920;28;20097;-72
2023/07/23 04:26:26;;;;;;;64.45;24.83;;;14.20;99.90;;;;;;5041391;28;20027;-71
2023/07/23 04:28:52;;;;;;;65.75;26.15;;;14.10;99.90;;;;;;5040106;28;20093;-71
2023/07/23 04:31:18;;;;;;;67.72;25.75;;;14.10;99.90;;;;;;5042079;28;20044;-71
2023/07/23 04:33:44;;;;;;;61.72;24.65;;;14.10;99.90;;;;;;5040868;28;20026;-74
2023/07/23 04:36:12;;;;;;;62.15;24.52;;;14.10;99.90;;;;;;5040658;28;20053;-71
2023/07/23 04:38:38;;;;;;;64.72;25.30;;;14.10;99.90;;;;;;5040720;28;20024;-69
2023/07/23 04:41:04;;;;;;;63.10;24.63;;;14.10;99.90;;;;;;5039704;28;20118;-69
2023/07/23 04:43:30;;;;;;;61.65;24.65;;;14.20;99.90;;;;;;5039342;28;20088;-70
2023/07/23 04:45:55;;;;;;;64.28;25.70;;;14.20;99.90;;;;;;5041492;28;20029;-69
2023/07/23 04:48:21;;;;;;;55.60;24.83;;;14.10;99.90;;;;;;5041612;28;20053;-69
2023/07/23 04:50:57;;;;;;;53.78;24.38;;;14.10;99.90;;;;;;5040111;28;20068;-70
2023/07/23 04:53:24;;;;;;;62.90;25.08;;;14.20;99.90;;;;;;5041584;28;20026;-69
2023/07/23 04:55:53;;;;;;;71.90;25.60;;;14.20;99.90;;;;;;5039365;28;20028;-72
2023/07/23 04:58:21;;;;;;;58.67;25.58;;;14.10;99.90;;;;;;5041590;28;20021;-70
2023/07/23 05:00:47;;;;;;;65.57;26.33;;;14.20;99.90;;;;;;5039994;28;20468;-71
2023/07/23 05:03:13;;;;;;;67.88;27.17;;;14.20;99.90;;;;;;5040998;28;20038;-70
2023/07/23 05:05:43;;;;;;;69.28;26.92;;;14.20;99.90;;;;;;5040122;28;20030;-68
2023/07/23 05:08:09;;;;;;;67.70;27.50;;;14.20;99.90;;;;;;5039933;28;20038;-70
2023/07/23 05:10:35;;;;;;;69.07;27.25;;;14.20;99.90;;;;;;5041032;28;20045;-69
2023/07/23 05:13:00;;;;;;;61.88;25.98;;;14.20;99.90;;;;;;5040103;28;20085;-67
2023/07/23 05:15:26;;;;;;;62.03;25.02;;;14.20;99.90;;;;;;5038779;28;20033;-69
2023/07/23 05:17:52;;;;;;;68.57;26.60;;;14.30;99.90;;;;;;5040007;28;20018;-70
2023/07/23 05:20:19;;;;;;;60.30;25.70;;;14.30;99.90;;;;;;5041474;28;20381;-68
2023/07/23 05:22:44;;;;;;;61.60;26.65;;;14.30;99.90;;;;;;5044373;28;20037;-71
2023/07/23 05:25:10;;;;;;;59.55;24.42;;;14.30;99.90;;;;;;5042432;28;20026;-70
2023/07/23 05:27:38;;;;;;;62.55;25.67;;;14.30;99.90;;;;;;5044478;28;20535;-72
2023/07/23 05:30:04;;;;;;;70.40;25.52;;;14.30;99.90;;;;;;5044106;28;20387;-69
2023/07/23 05:32:31;;;;;;;66.75;24.70;;;14.30;99.90;;;;;;5043933;28;20041;-70
2023/07/23 05:34:56;;;;;;;67.15;25.60;;;14.30;99.90;;;;;;5043684;28;20018;-71
2023/07/23 05:37:24;;;;;;;66.55;25.52;;;14.30;99.90;;;;;;5044564;28;20052;-69
2023/07/23 05:39:52;;;;;;;55.25;25.30;;;14.30;99.90;;;;;;5042940;28;20021;-71
2023/07/23 05:42:18;;;;;;;67.45;26.30;;;14.40;99.90;;;;;;5043406;28;20083;-71
2023/07/23 05:44:44;;;;;;;68.10;26.25;;;14.40;99.90;;;;;;5044008;28;20048;-70
2023/07/23 05:47:09;;;;;;;57.72;23.95;;;14.40;99.90;;;;;;5044662;28;20758;-69
2023/07/23 05:49:35;;;;;;;62.45;25.98;;;14.40;99.90;;;;;;5044398;28;20026;-71
2023/07/23 05:52:01;;;;;;;61.00;24.45;;;14.40;99.90;;;;;;5042510;28;20069;-70
2023/07/23 05:54:26;;;;;;;60.22;24.90;;;14.40;99.90;;;;;;5044222;28;20037;-72
2023/07/23 05:56:52;;;;;;;52.00;24.10;;;14.40;99.90;;;;;;5042738;28;20013;-72
2023/07/23 05:59:18;;;;;;;56.83;23.83;;;14.40;99.90;;;;;;5044155;28;20021;-72
2023/07/23 06:01:43;;;;;;;58.25;23.90;;;14.40;99.90;;;;;;5042939;28;20037;-72
2023/07/23 06:04:09;;;;;;;49.08;21.70;;;14.50;99.90;;;;;;5037092;28;20443;-72
2023/07/23 06:06:35;;;;;;;53.28;22.02;;;14.40;99.90;;;;;;5042224;28;20479;-69
2023/07/23 06:09:00;;;;;;;50.60;21.92;;;14.40;99.90;;;;;;5040821;28;20037;-72
2023/07/23 06:11:26;;;;;;;50.05;22.23;;;14.50;99.90;;;;;;5042639;28;20486;-70
2023/07/23 06:13:52;;;;;;;44.10;19.70;;;14.50;99.90;;;;;;5041690;28;20021;-70
2023/07/23 06:16:18;;;;;;;43.15;21.60;;;14.50;99.90;;;;;;5042984;28;20379;-70
2023/07/23 06:18:43;;;;;;;48.13;20.77;;;14.50;99.90;;;;;;5041202;28;20036;-70
2023/07/23 06:21:09;;;;;;;48.67;20.92;;;14.50;99.90;;;;;;5042833;28;20037;-69
2023/07/23 06:23:35;;;;;;;39.35;18.50;;;14.50;99.90;;;;;;5042094;28;20091;-70
2023/07/23 06:26:00;;;;;;;41.78;18.23;;;14.60;99.90;;;;;;5043574;28;20123;-70
2023/07/23 06:28:26;;;;;;;42.28;19.33;;;14.60;99.90;;;;;;5042992;28;20022;-70
2023/07/23 06:30:53;;;;;;;37.28;18.65;;;14.60;99.90;;;;;;5043236;28;20022;-70
2023/07/23 06:33:19;;;;;;;39.65;19.27;;;14.60;99.90;;;;;;5042359;28;20053;-69
2023/07/23 06:35:46;;;;;;;43.65;19.10;;;14.60;99.90;;;;;;5042293;28;20053;-72
2023/07/23 06:38:12;;;;;;;37.88;18.20;;;14.70;99.90;;;;;;5043503;28;20045;-69
2023/07/23 06:40:44;;;;;;;36.53;16.75;;;14.70;99.90;;;;;;5040988;28;20025;-71
2023/07/23 06:43:09;;;;;;;33.85;17.98;;;14.70;99.90;;;;;;5040345;28;20046;-70
2023/07/23 06:45:35;;;;;;;38.25;17.85;;;14.70;99.90;;;;;;5041026;28;20461;-71
2023/07/23 06:48:00;;;;;;;36.28;17.83;;;14.70;99.90;;;;;;5041194;28;20962;-71
2023/07/23 06:50:26;;;;;;;42.10;18.85;;;14.60;99.90;;;;;;5043128;28;20026;-71
2023/07/23 06:52:51;;;;;;;41.22;18.48;;;14.70;99.90;;;;;;5042687;28;20091;-71
2023/07/23 06:55:17;;;;;;;33.13;16.90;;;14.80;99.90;;;;;;5043047;28;20052;-70
2023/07/23 06:57:43;;;;;;;36.05;17.08;;;14.70;99.90;;;;;;5043145;28;20489;-72
2023/07/23 07:00:09;;;;;;;35.53;16.50;;;14.80;99.90;;;;;;5043132;28;20021;-70
2023/07/23 07:02:34;;;;;;;34.78;17.05;;;14.80;99.90;;;;;;5042566;28;20036;-69
2023/07/23 07:05:00;;;;;;;41.47;16.75;;;14.80;99.90;;;;;;5043285;28;20033;-70
2023/07/23 07:07:25;;;;;;;34.17;17.75;;;14.80;99.90;;;;;;5043038;28;20085;-69
2023/07/23 07:09:53;;;;;;;40.08;17.15;;;14.90;99.90;;;;;;5043010;28;20013;-70
2023/07/23 07:12:19;;;;;;;34.50;15.70;;;14.90;99.90;;;;;;5042369;28;20041;-72
2023/07/23 07:14:44;;;;;;;34.65;16.35;;;14.90;99.90;;;;;;5042412;28;20021;-70
2023/07/23 07:17:10;;;;;;;31.50;16.90;;;15.00;99.90;;;;;;5042427;28;20029;-70
2023/07/23 07:19:35;;;;;;;33.65;16.52;;;15.00;99.90;;;;;;5042729;28;20037;-70
2023/07/23 07:22:01;;;;;;;33.08;15.57;;;15.00;99.90;;;;;;5041397;28;20066;-71
2023/07/23 07:24:27;;;;;;;38.15;16.20;;;15.00;99.90;;;;;;5041541;28;20017;-69
2023/07/23 07:26:53;;;;;;;35.65;16.40;;;15.10;99.90;;;;;;5042422;28;20022;-70
2023/07/23 07:29:19;;;;;;;29.15;15.75;;;15.10;99.90;;;;;;5042920;28;20404;-71
2023/07/23 07:31:45;;;;;;;28.67;14.98;;;15.10;99.90;;;;;;5041113;28;20021;-70
2023/07/23 07:34:11;;;;;;;29.40;14.57;;;15.10;99.90;;;;;;5041946;28;20087;-72
2023/07/23 07:36:38;;;;;;;30.60;15.07;;;15.20;99.90;;;;;;5042188;28;20025;-69
2023/07/23 07:39:04;;;;;;;26.42;12.90;;;15.10;99.90;;;;;;5041852;28;20044;-68
2023/07/23 07:41:30;;;;;;;23.92;13.98;;;15.20;99.90;;;;;;5042427;28;20030;-70
2023/07/23 07:43:56;;;;;;;31.17;15.63;;;15.20;99.90;;;;;;5040907;28;20026;-71
2023/07/23 07:46:21;;;;;;;31.60;15.25;;;15.20;99.90;;;;;;5041092;28;20021;-70
2023/07/23 07:48:47;;;;;;;33.58;16.45;;;15.20;99.90;;;;;;5039625;28;20075;-70
2023/07/23 07:51:13;;;;;;;32.15;16.20;;;15.30;99.90;;;;;;5038375;28;20057;-72
2023/07/23 07:53:38;;;;;;;35.60;17.23;;;15.30;99.90;;;;;;5040039;28;20033;-69
2023/07/23 07:56:05;;;;;;;33.38;16.27;;;15.40;99.90;;;;;;5040028;28;20017;-69
2023/07/23 07:58:31;;;;;;;29.77;16.55;;;15.40;99.90;;;;;;5039099;28;20041;-70
2023/07/23 08:00:59;;;;;;;28.23;15.85;;;15.50;99.90;;;;;;5039677;28;20379;-72
2023/07/23 08:03:27;;;;;;;29.90;15.15;;;15.50;99.90;;;;;;5038665;28;20040;-74
2023/07/23 08:05:55;;;;;;;30.63;15.63;;;15.50;99.90;;;;;;5037748;28;20028;-70
2023/07/23 08:08:33;;;;;;;26.50;14.60;;;15.60;99.90;;;;;;5041176;28;20025;-69
2023/07/23 08:11:00;;;;;;;25.40;15.18;;;15.60;99.90;;;;;;5040102;28;20044;-71
2023/07/23 08:13:27;;;;;;;31.02;15.43;;;15.60;99.90;;;;;;5038537;28;20061;-70
2023/07/23 08:15:56;;;;;;;30.13;15.52;;;15.60;99.90;;;;;;5039329;28;20079;-71
2023/07/23 08:18:22;;;;;;;30.45;15.73;;;15.70;99.90;;;;;;5041581;28;20037;-71
2023/07/23 08:20:48;;;;;;;29.27;15.93;;;15.70;99.90;;;;;;5041245;28;20033;-70
2023/07/23 08:23:14;;;;;;;29.77;15.00;;;15.70;99.90;;;;;;5039269;28;20067;-70
2023/07/23 08:25:42;;;;;;;31.92;14.90;;;15.70;99.90;;;;;;5039956;28;20080;-69
2023/07/23 08:28:08;;;;;;;27.60;13.55;;;15.80;99.90;;;;;;5040139;28;20029;-70
2023/07/23 08:30:33;;;;;;;24.00;13.30;;;15.80;99.90;;;;;;5040959;28;20029;-71
2023/07/23 08:33:00;;;;;;;27.45;14.02;;;15.80;99.90;;;;;;5041228;28;20056;-70
2023/07/23 08:35:28;;;;;;;25.70;14.18;;;15.90;99.90;;;;;;5040678;28;20021;-70
2023/07/23 08:37:58;;;;;;;28.40;14.75;;;15.90;99.90;;;;;;5041336;28;20036;-69
2023/07/23 08:40:25;;;;;;;23.25;13.27;;;15.90;99.90;;;;;;5040393;28;20495;-71
2023/07/23 08:42:54;;;;;;;23.63;13.32;;;15.90;99.90;;;;;;5041024;28;20065;-71
2023/07/23 08:45:34;;;;;;;23.85;12.65;;;16.00;99.90;;;;;;5040591;28;20093;-71
2023/07/23 08:48:20;;;;;;;27.15;12.63;;;16.10;99.90;;;;;;5040787;28;20079;-70
2023/07/23 08:50:48;;;;;;;29.20;13.32;;;16.10;99.90;;;;;;5039681;28;20061;-69
2023/07/23 08:53:15;;;;;;;25.88;13.27;;;16.20;99.90;;;;;;5038959;28;20032;-70
2023/07/23 08:55:43;;;;;;;24.40;12.98;;;16.20;99.90;;;;;;5040974;28;20022;-70
2023/07/23 08:58:14;;;;;;;21.80;13.23;;;16.30;99.90;;;;;;5043301;28;20045;-69
2023/07/23 09:00:42;;;;;;;22.73;12.02;;;16.40;99.90;;;;;;5042026;28;20397;-69
2023/07/23 09:03:11;;;;;;;23.98;12.43;;;16.40;99.90;;;;;;5043033;28;20061;-70
2023/07/23 09:05:38;;;;;;;22.27;11.95;;;16.50;99.90;;;;;;5043219;28;20718;-71
2023/07/23 09:08:04;;;;;;;23.33;11.93;;;16.50;99.90;;;;;;5040152;28;20055;-70
2023/07/23 09:10:29;;;;;;;22.52;12.27;;;16.50;99.90;;;;;;5041994;28;20063;-69
2023/07/23 09:12:55;;;;;;;20.90;10.98;;;16.60;99.90;;;;;;5055591;28;20033;-70
2023/07/23 09:15:21;;;;;;;21.17;11.93;;;16.70;99.90;;;;;;5044249;28;20052;-68
2023/07/23 09:17:50;;;;;;;21.05;12.88;;;16.70;99.90;;;;;;5043266;28;20117;-69
2023/07/23 09:20:19;;;;;;;22.58;12.50;;;16.80;99.90;;;;;;5041174;28;20037;-68
2023/07/23 09:22:46;;;;;;;27.88;14.05;;;16.80;99.90;;;;;;5044616;28;20064;-71
2023/07/23 09:25:11;;;;;;;26.98;14.05;;;16.90;99.90;;;;;;5041956;28;20033;-68
2023/07/23 09:27:40;;;;;;;22.50;13.48;;;17.00;99.90;;;;;;5039073;28;20044;-68
2023/07/23 09:30:06;;;;;;;32.17;15.35;;;17.00;99.90;;;;;;5041062;28;20179;-69
2023/07/23 09:32:31;;;;;;;26.08;15.32;;;17.00;99.90;;;;;;5042486;28;20032;-68
2023/07/23 09:34:58;;;;;;;29.58;15.50;;;17.00;99.90;;;;;;5044138;28;20026;-70
2023/07/23 09:37:27;;;;;;;27.77;14.23;;;17.00;99.90;;;;;;5043059;28;20041;-70
2023/07/23 09:39:56;;;;;;;27.80;14.85;;;16.90;99.90;;;;;;5040081;28;20095;-71
2023/07/23 09:42:22;;;;;;;28.00;13.52;;;16.90;99.90;;;;;;5042021;28;20065;-73
2023/07/23 09:44:48;;;;;;;23.88;12.15;;;16.90;99.90;;;;;;5043343;28;20087;-71
2023/07/23 09:47:14;;;;;;;22.52;12.07;;;16.90;99.90;;;;;;5041968;28;20037;-73
2023/07/23 09:49:42;;;;;;;27.13;12.93;;;16.80;99.90;;;;;;5043585;28;20025;-70
2023/07/23 09:52:08;;;;;;;24.58;12.68;;;16.70;99.90;;;;;;5043007;28;20150;-71
2023/07/23 09:54:37;;;;;;;28.23;13.55;;;16.60;99.90;;;;;;5043366;28;20024;-69
2023/07/23 09:57:03;;;;;;;25.33;14.32;;;16.60;99.90;;;;;;5043386;28;20036;-68
2023/07/23 09:59:30;;;;;;;25.50;14.15;;;16.50;99.90;;;;;;5043734;28;20032;-70
2023/07/23 10:01:56;;;;;;;28.08;15.48;;;16.40;99.90;;;;;;5043751;28;20100;-71
2023/07/23 10:04:23;;;;;;;36.05;16.23;;;16.40;99.90;;;;;;5043425;28;20041;-72
2023/07/23 10:06:49;;;;;;;31.42;16.30;;;16.30;99.90;;;;;;5043654;28;20041;-69
2023/07/23 10:09:16;;;;;;;31.75;14.27;;;16.30;99.90;;;;;;5040546;28;20113;-71
2023/07/23 10:11:41;;;;;;;29.73;13.90;;;16.30;99.90;;;;;;5041396;28;20033;-70
2023/07/23 10:14:07;;;;;;;32.55;15.73;;;16.20;99.90;;;;;;5041664;28;20033;-71
2023/07/23 10:16:38;;;;;;;35.58;14.70;;;16.20;99.90;;;;;;5042958;28;20068;-69
2023/07/23 10:19:04;;;;;;;31.65;14.45;;;16.20;99.90;;;;;;5041843;28;20030;-70
2023/07/23 10:21:35;;;;;;;37.10;15.77;;;16.10;99.90;;;;;;5038958;28;20044;-70
2023/07/23 10:24:01;;;;;;;33.28;16.13;;;16.10;99.90;;;;;;5043119;28;20029;-70
2023/07/23 10:26:48;;;;;;;38.25;16.58;;;16.10;99.90;;;;;;5043069;28;20038;-71
2023/07/23 10:29:18;;;;;;;30.13;15.40;;;16.10;99.90;;;;;;5043210;28;20088;-71
2023/07/23 10:31:44;;;;;;;32.67;15.88;;;16.10;99.90;;;;;;5042008;28;20026;-69
2023/07/23 10:34:22;;;;;;;36.00;16.08;;;16.10;99.90;;;;;;5041401;28;20026;-69
2023/07/23 10:37:13;;;;;;;35.53;14.48;;;16.10;99.90;;;;;;5040090;28;20083;-71
2023/07/23 10:39:43;;;;;;;31.55;15.05;;;16.10;99.90;;;;;;5041628;28;20367;-69
2023/07/23 10:42:09;;;;;;;28.27;14.27;;;16.10;99.90;;;;;;5042521;28;20046;-69
2023/07/23 10:44:37;;;;;;;28.20;14.40;;;16.00;99.90;;;;;;5039327;28;20541;-70
2023/07/23 10:47:30;;;;;;;30.45;14.75;;;16.00;99.90;;;;;;5040870;28;20033;-69
2023/07/23 10:50:10;;;;;;;31.33;14.73;;;16.00;99.90;;;;;;5042184;28;20394;-68
2023/07/23 10:52:36;;;;;;;31.67;16.45;;;16.00;99.90;;;;;;5042051;28;20454;-70
2023/07/23 10:55:02;;;;;;;32.50;15.75;;;16.00;99.90;;;;;;5040421;28;20033;-69
2023/07/23 10:57:30;;;;;;;28.13;14.75;;;16.00;99.90;;;;;;5040007;28;20541;-70
2023/07/23 10:59:56;;;;;;;26.77;14.70;;;15.90;99.90;;;;;;5040729;28;20036;-70
2023/07/23 11:02:27;;;;;;;32.45;14.82;;;15.90;99.90;;;;;;5040458;28;20034;-69
2023/07/23 11:05:00;;;;;;;31.00;14.60;;;15.90;99.90;;;;;;5041067;28;20041;-69
2023/07/23 11:07:28;;;;;;;34.58;17.88;;;15.90;99.90;;;;;;5040165;28;20025;-68
2023/07/23 11:09:55;;;;;;;35.50;18.23;;;15.90;99.90;;;;;;5041878;28;20029;-68
2023/07/23 11:12:22;;;;;;;39.95;18.42;;;15.90;99.90;;;;;;5042577;28;20033;-72
2023/07/23 11:14:48;;;;;;;40.25;18.58;;;15.90;99.90;;;;;;5040213;28;20041;-70
2023/07/23 11:17:14;;;;;;;32.47;17.35;;;15.90;99.90;;;;;;5039610;28;20033;-69
2023/07/23 11:19:45;;;;;;;37.70;18.98;;;15.90;99.90;;;;;;5037074;28;20443;-70
2023/07/23 11:22:13;;;;;;;39.50;20.40;;;15.90;99.90;;;;;;5039921;28;20041;-68
2023/07/23 11:24:40;;;;;;;30.50;17.17;;;15.90;99.90;;;;;;5039249;28;20039;-69
2023/07/23 11:27:05;;;;;;;27.17;15.52;;;15.90;99.90;;;;;;5038729;28;20033;-69
2023/07/23 11:29:31;;;;;;;28.83;15.90;;;15.90;99.90;;;;;;5039982;28;20018;-70
2023/07/23 11:31:57;;;;;;;29.80;15.95;;;15.90;99.90;;;;;;5041698;28;20056;-71
2023/07/23 11:34:24;;;;;;;35.80;16.70;;;15.90;99.90;;;;;;5041854;28;20022;-69
2023/07/23 11:36:55;;;;;;;29.02;16.80;;;15.90;99.90;;;;;;5040467;28;20022;-70
2023/07/23 11:39:24;;;;;;;35.00;17.67;;;16.00;99.90;;;;;;5041427;28;20013;-69
2023/07/23 11:41:50;;;;;;;36.38;18.23;;;16.00;99.90;;;;;;5039027;28;20490;-69
2023/07/23 11:44:16;;;;;;;31.33;18.95;;;16.00;99.90;;;;;;5041100;28;20780;-69
2023/07/23 11:46:42;;;;;;;45.85;20.20;;;16.00;99.90;;;;;;5042196;28;20044;-70
2023/07/23 11:49:10;;;;;;;36.63;21.20;;;16.00;99.90;;;;;;5040401;28;20056;-71
2023/07/23 11:51:39;;;;;;;37.13;18.83;;;16.10;99.90;;;;;;5041327;28;20044;-72
2023/07/23 11:54:13;;;;;;;32.85;18.30;;;16.10;99.90;;;;;;5041039;28;20025;-69
2023/07/23 11:56:46;;;;;;;39.28;20.35;;;16.00;99.90;;;;;;5039847;28;20076;-71
2023/07/23 11:59:19;;;;;;;35.97;19.93;;;16.10;99.90;;;;;;5037515;28;20038;-68
2023/07/23 12:01:45;;;;;;;31.98;19.27;;;16.10;99.90;;;;;;5040404;28;20037;-66
2023/07/23 12:04:10;;;;;;;34.72;18.20;;;16.10;99.90;;;;;;5038050;28;20047;-70
2023/07/23 12:06:39;;;;;;;28.55;16.90;;;16.10;99.90;;;;;;5039682;28;20084;-72
2023/07/23 12:09:11;;;;;;;28.80;16.00;;;16.10;99.90;;;;;;5040451;28;20116;-70
2023/07/23 12:11:38;;;;;;;27.48;14.82;;;16.10;99.90;;;;;;5041188;28;20045;-69
2023/07/23 12:14:08;;;;;;;19.13;9.02;;;16.10;99.90;;;;;;5040423;28;20018;-73
2023/07/23 12:16:51;;;;;;;17.52;8.93;;;16.10;99.90;;;;;;5039165;28;20079;-74
2023/07/23 12:19:19;;;;;;;19.38;8.75;;;16.10;99.90;;;;;;5039962;28;20104;-73
2023/07/23 12:21:53;;;;;;;13.85;7.32;;;16.10;99.90;;;;;;5040192;28;20055;-73
2023/07/23 12:24:24;;;;;;;12.10;7.75;;;16.20;99.90;;;;;;5039790;28;20056;-73
2023/07/23 12:26:54;;;;;;;16.42;7.82;;;16.20;99.90;;;;;;5039544;28;20580;-72